sensor_id;sensor_type;location;lat;lon;timestamp;P1;durP1;ratioP1;P2;durP2;ratioP2
46377;SDS011;32083;47.360;9.650;2022-11-14T05:02:21;21.55;;;14.95;;
46377;SDS011;32083;47.360;9.650;2022-11-14T05:04:47;21.52;;;16.27;;
46377;SDS011;32083;47.360;9.650;2022-11-14T05:07:13;21.35;;;15.38;;
46377;SDS011;32083;47.360;9.650;2022-11-14T05:09:39;25.17;;;17.83;;
46377;SDS011;32083;47.360;9.650;2022-11-14T05:12:05;21.30;;;15.43;;
46377;SDS011;32083;47.360;9.650;2022-11-14T05:14:31;21.92;;;16.05;;
46377;SDS011;32083;47.360;9.650;2022-11-14T05:16:57;23.23;;;16.85;;
46377;SDS011;32083;47.360;9.650;2022-11-14T05:19:23;22.95;;;18.38;;
46377;SDS011;32083;47.360;9.650;2022-11-14T05:21:49;18.33;;;14.90;;
46377;SDS011;32083;47.360;9.650;2022-11-14T05:24:15;19.00;;;14.68;;
46377;SDS011;32083;47.360;9.650;2022-11-14T05:26:41;23.42;;;17.23;;
46377;SDS011;32083;47.360;9.650;2022-11-14T05:29:07;22.45;;;17.33;;
46377;SDS011;32083;47.360;9.650;2022-11-14T05:31:33;24.67;;;18.70;;
46377;SDS011;32083;47.360;9.650;2022-11-14T05:33:59;23.10;;;17.65;;
46377;SDS011;32083;47.360;9.650;2022-11-14T05:36:25;22.10;;;15.85;;
46377;SDS011;32083;47.360;9.650;2022-11-14T05:38:51;23.33;;;17.38;;
46377;SDS011;32083;47.360;9.650;2022-11-14T05:41:18;25.13;;;18.10;;
46377;SDS011;32083;47.360;9.650;2022-11-14T05:43:44;23.40;;;17.05;;
46377;SDS011;32083;47.360;9.650;2022-11-14T05:46:10;21.65;;;16.83;;
46377;SDS011;32083;47.360;9.650;2022-11-14T05:48:38;22.52;;;18.30;;
46377;SDS011;32083;47.360;9.650;2022-11-14T05:51:04;22.25;;;17.40;;
46377;SDS011;32083;47.360;9.650;2022-11-14T05:53:31;21.20;;;17.02;;
46377;SDS011;32083;47.360;9.650;2022-11-14T05:55:59;24.77;;;17.23;;
46377;SDS011;32083;47.360;9.650;2022-11-14T05:58:26;21.45;;;15.65;;
46377;SDS011;32083;47.360;9.650;2022-11-14T06:00:52;19.85;;;16.15;;
46377;SDS011;32083;47.360;9.650;2022-11-14T06:03:28;18.98;;;16.10;;
46377;SDS011;32083;47.360;9.650;2022-11-14T06:05:55;19.33;;;15.18;;
46377;SDS011;32083;47.360;9.650;2022-11-14T06:08:23;24.10;;;16.40;;
46377;SDS011;32083;47.360;9.650;2022-11-14T06:10:49;23.45;;;17.67;;
46377;SDS011;32083;47.360;9.650;2022-11-14T06:13:15;21.83;;;16.13;;
46377;SDS011;32083;47.360;9.650;2022-11-14T06:15:41;21.63;;;15.50;;
46377;SDS011;32083;47.360;9.650;2022-11-14T06:18:07;23.73;;;17.35;;
46377;SDS011;32083;47.360;9.650;2022-11-14T06:20:33;24.25;;;18.27;;
46377;SDS011;32083;47.360;9.650;2022-11-14T06:23:00;24.25;;;16.80;;
46377;SDS011;32083;47.360;9.650;2022-11-14T06:25:26;19.60;;;16.52;;
46377;SDS011;32083;47.360;9.650;2022-11-14T06:27:52;20.70;;;17.67;;
46377;SDS011;32083;47.360;9.650;2022-11-14T06:30:18;21.65;;;17.23;;
46377;SDS011;32083;47.360;9.650;2022-11-14T06:32:44;19.42;;;14.80;;
46377;SDS011;32083;47.360;9.650;2022-11-14T06:35:10;20.88;;;16.25;;
46377;SDS011;32083;47.360;9.650;2022-11-14T06:37:36;18.52;;;14.77;;
46377;SDS011;32083;47.360;9.650;2022-11-14T06:40:01;20.88;;;16.25;;
46377;SDS011;32083;47.360;9.650;2022-11-14T06:42:27;19.20;;;15.63;;
46377;SDS011;32083;47.360;9.650;2022-11-14T06:44:53;18.25;;;14.82;;
46377;SDS011;32083;47.360;9.650;2022-11-14T06:47:19;17.60;;;14.38;;
46377;SDS011;32083;47.360;9.650;2022-11-14T06:49:45;15.80;;;13.38;;
46377;SDS011;32083;47.360;9.650;2022-11-14T06:52:11;18.13;;;15.48;;
46377;SDS011;32083;47.360;9.650;2022-11-14T06:54:37;18.05;;;14.68;;
46377;SDS011;32083;47.360;9.650;2022-11-14T06:57:02;20.10;;;16.33;;
46377;SDS011;32083;47.360;9.650;2022-11-14T06:59:28;19.25;;;15.40;;
46377;SDS011;32083;47.360;9.650;2022-11-14T07:01:55;17.73;;;13.82;;
46377;SDS011;32083;47.360;9.650;2022-11-14T07:04:21;19.38;;;15.43;;
46377;SDS011;32083;47.360;9.650;2022-11-14T07:06:47;20.08;;;15.98;;
46377;SDS011;32083;47.360;9.650;2022-11-14T07:09:13;18.55;;;14.23;;
46377;SDS011;32083;47.360;9.650;2022-11-14T07:11:39;20.73;;;16.77;;
46377;SDS011;32083;47.360;9.650;2022-11-14T07:14:05;21.48;;;17.85;;
46377;SDS011;32083;47.360;9.650;2022-11-14T07:16:32;21.13;;;17.20;;
46377;SDS011;32083;47.360;9.650;2022-11-14T07:19:00;26.15;;;19.70;;
46377;SDS011;32083;47.360;9.650;2022-11-14T07:21:28;24.80;;;19.10;;
46377;SDS011;32083;47.360;9.650;2022-11-14T07:23:55;25.10;;;19.80;;
46377;SDS011;32083;47.360;9.650;2022-11-14T07:26:22;26.85;;;19.42;;
46377;SDS011;32083;47.360;9.650;2022-11-14T07:28:48;28.25;;;20.95;;
46377;SDS011;32083;47.360;9.650;2022-11-14T07:31:15;26.30;;;18.80;;
46377;SDS011;32083;47.360;9.650;2022-11-14T07:33:42;29.58;;;21.75;;
46377;SDS011;32083;47.360;9.650;2022-11-14T07:36:09;26.83;;;18.90;;
46377;SDS011;32083;47.360;9.650;2022-11-14T07:38:36;21.13;;;15.80;;
46377;SDS011;32083;47.360;9.650;2022-11-14T07:41:04;22.15;;;15.80;;
46377;SDS011;32083;47.360;9.650;2022-11-14T07:43:32;15.77;;;12.27;;
46377;SDS011;32083;47.360;9.650;2022-11-14T07:46:03;14.90;;;10.80;;
46377;SDS011;32083;47.360;9.650;2022-11-14T07:48:32;15.82;;;12.05;;
46377;SDS011;32083;47.360;9.650;2022-11-14T07:50:59;12.38;;;10.80;;
46377;SDS011;32083;47.360;9.650;2022-11-14T07:53:26;12.15;;;10.20;;
46377;SDS011;32083;47.360;9.650;2022-11-14T07:55:53;13.02;;;9.95;;
46377;SDS011;32083;47.360;9.650;2022-11-14T07:58:19;12.98;;;9.45;;
46377;SDS011;32083;47.360;9.650;2022-11-14T08:00:46;19.80;;;10.73;;
46377;SDS011;32083;47.360;9.650;2022-11-14T08:03:12;12.07;;;9.95;;
46377;SDS011;32083;47.360;9.650;2022-11-14T08:05:38;11.38;;;9.65;;
46377;SDS011;32083;47.360;9.650;2022-11-14T08:08:04;14.50;;;9.75;;
46377;SDS011;32083;47.360;9.650;2022-11-14T08:10:30;11.63;;;9.50;;
46377;SDS011;32083;47.360;9.650;2022-11-14T08:12:57;13.18;;;10.10;;
46377;SDS011;32083;47.360;9.650;2022-11-14T08:15:24;13.10;;;11.18;;
46377;SDS011;32083;47.360;9.650;2022-11-14T08:17:50;11.55;;;10.32;;
46377;SDS011;32083;47.360;9.650;2022-11-14T08:20:16;12.77;;;10.52;;
46377;SDS011;32083;47.360;9.650;2022-11-14T08:22:42;11.48;;;10.25;;
46377;SDS011;32083;47.360;9.650;2022-11-14T08:25:08;12.23;;;10.93;;
46377;SDS011;32083;47.360;9.650;2022-11-14T08:27:34;11.98;;;10.80;;
46377;SDS011;32083;47.360;9.650;2022-11-14T08:30:00;15.02;;;10.93;;
46377;SDS011;32083;47.360;9.650;2022-11-14T08:32:26;11.82;;;10.30;;
46377;SDS011;32083;47.360;9.650;2022-11-14T08:34:52;12.82;;;10.85;;
46377;SDS011;32083;47.360;9.650;2022-11-14T08:37:18;10.77;;;8.77;;
46377;SDS011;32083;47.360;9.650;2022-11-14T08:39:44;11.45;;;10.20;;
46377;SDS011;32083;47.360;9.650;2022-11-14T08:42:10;11.63;;;10.20;;
46377;SDS011;32083;47.360;9.650;2022-11-14T08:44:36;11.65;;;9.55;;
46377;SDS011;32083;47.360;9.650;2022-11-14T08:47:02;11.82;;;10.20;;
46377;SDS011;32083;47.360;9.650;2022-11-14T08:49:28;12.45;;;9.98;;
46377;SDS011;32083;47.360;9.650;2022-11-14T08:51:54;12.70;;;11.40;;
46377;SDS011;32083;47.360;9.650;2022-11-14T08:54:21;17.20;;;10.35;;
46377;SDS011;32083;47.360;9.650;2022-11-14T08:56:47;13.07;;;11.15;;
46377;SDS011;32083;47.360;9.650;2022-11-14T08:59:13;10.57;;;9.45;;
46377;SDS011;32083;47.360;9.650;2022-11-14T09:01:39;12.73;;;9.82;;
46377;SDS011;32083;47.360;9.650;2022-11-14T09:04:05;10.07;;;9.05;;
46377;SDS011;32083;47.360;9.650;2022-11-14T09:06:32;11.10;;;9.93;;
46377;SDS011;32083;47.360;9.650;2022-11-14T09:08:58;13.05;;;10.02;;
46377;SDS011;32083;47.360;9.650;2022-11-14T09:11:24;12.15;;;10.73;;
46377;SDS011;32083;47.360;9.650;2022-11-14T09:13:50;10.57;;;8.90;;
46377;SDS011;32083;47.360;9.650;2022-11-14T09:16:16;10.45;;;9.27;;
46377;SDS011;32083;47.360;9.650;2022-11-14T09:18:42;10.52;;;9.43;;
46377;SDS011;32083;47.360;9.650;2022-11-14T09:21:09;11.60;;;10.40;;
46377;SDS011;32083;47.360;9.650;2022-11-14T09:23:35;11.20;;;9.60;;
46377;SDS011;32083;47.360;9.650;2022-11-14T09:26:04;10.65;;;9.48;;
46377;SDS011;32083;47.360;9.650;2022-11-14T09:28:32;10.82;;;9.45;;
46377;SDS011;32083;47.360;9.650;2022-11-14T09:31:01;10.63;;;8.93;;
46377;SDS011;32083;47.360;9.650;2022-11-14T09:33:28;10.77;;;9.68;;
46377;SDS011;32083;47.360;9.650;2022-11-14T09:35:58;11.57;;;10.02;;
46377;SDS011;32083;47.360;9.650;2022-11-14T09:38:25;11.20;;;10.13;;
46377;SDS011;32083;47.360;9.650;2022-11-14T09:48:49;10.93;;;9.82;;
46377;SDS011;32083;47.360;9.650;2022-11-14T09:51:21;12.23;;;10.20;;
46377;SDS011;32083;47.360;9.650;2022-11-14T09:54:04;12.27;;;10.85;;
46377;SDS011;32083;47.360;9.650;2022-11-14T09:56:40;13.57;;;11.60;;
46377;SDS011;32083;47.360;9.650;2022-11-14T09:59:09;14.73;;;11.18;;
46377;SDS011;32083;47.360;9.650;2022-11-14T10:01:57;13.15;;;11.80;;
46377;SDS011;32083;47.360;9.650;2022-11-14T10:10:02;15.40;;;12.13;;
46377;SDS011;32083;47.360;9.650;2022-11-14T10:12:56;13.68;;;12.20;;
46377;SDS011;32083;47.360;9.650;2022-11-14T10:15:45;13.00;;;11.45;;
46377;SDS011;32083;47.360;9.650;2022-11-14T10:21:38;14.52;;;11.82;;
46377;SDS011;32083;47.360;9.650;2022-11-14T10:27:04;14.38;;;12.38;;
46377;SDS011;32083;47.360;9.650;2022-11-14T10:32:20;13.55;;;11.20;;
46377;SDS011;32083;47.360;9.650;2022-11-14T10:43:15;13.38;;;11.32;;
46377;SDS011;32083;47.360;9.650;2022-11-14T10:48:50;14.43;;;11.77;;
46377;SDS011;32083;47.360;9.650;2022-11-14T10:56:22;12.43;;;10.88;;
46377;SDS011;32083;47.360;9.650;2022-11-14T10:58:48;14.02;;;12.15;;
46377;SDS011;32083;47.360;9.650;2022-11-14T11:04:16;13.30;;;11.52;;
46377;SDS011;32083;47.360;9.650;2022-11-14T11:07:16;13.52;;;11.20;;
46377;SDS011;32083;47.360;9.650;2022-11-14T11:10:22;12.52;;;11.13;;
46377;SDS011;32083;47.360;9.650;2022-11-14T11:13:09;12.90;;;10.90;;
46377;SDS011;32083;47.360;9.650;2022-11-14T11:15:41;10.25;;;9.00;;
46377;SDS011;32083;47.360;9.650;2022-11-14T11:21:04;12.35;;;9.80;;
46377;SDS011;32083;47.360;9.650;2022-11-14T11:23:30;11.25;;;9.68;;
46377;SDS011;32083;47.360;9.650;2022-11-14T11:26:00;11.50;;;10.10;;
46377;SDS011;32083;47.360;9.650;2022-11-14T11:28:31;11.48;;;9.77;;
46377;SDS011;32083;47.360;9.650;2022-11-14T11:30:59;12.18;;;10.80;;
46377;SDS011;32083;47.360;9.650;2022-11-14T11:33:28;12.10;;;10.40;;
46377;SDS011;32083;47.360;9.650;2022-11-14T11:35:59;12.95;;;11.55;;
46377;SDS011;32083;47.360;9.650;2022-11-14T11:38:30;14.77;;;10.80;;
46377;SDS011;32083;47.360;9.650;2022-11-14T11:41:43;12.48;;;11.27;;
46377;SDS011;32083;47.360;9.650;2022-11-14T11:43:49;11.73;;;10.15;;
46377;SDS011;32083;47.360;9.650;2022-11-14T11:49:34;14.02;;;10.52;;
46377;SDS011;32083;47.360;9.650;2022-11-14T11:52:18;10.88;;;8.90;;
46377;SDS011;32083;47.360;9.650;2022-11-14T11:57:42;11.38;;;10.13;;
46377;SDS011;32083;47.360;9.650;2022-11-14T12:02:47;17.08;;;11.18;;
46377;SDS011;32083;47.360;9.650;2022-11-14T12:08:25;12.27;;;10.80;;
46377;SDS011;32083;47.360;9.650;2022-11-14T12:10:59;12.32;;;10.77;;
46377;SDS011;32083;47.360;9.650;2022-11-14T12:16:05;12.88;;;11.50;;
46377;SDS011;32083;47.360;9.650;2022-11-14T12:32:29;11.77;;;10.57;;
46377;SDS011;32083;47.360;9.650;2022-11-14T12:34:58;12.98;;;11.68;;
46377;SDS011;32083;47.360;9.650;2022-11-14T12:37:35;13.30;;;11.75;;
46377;SDS011;32083;47.360;9.650;2022-11-14T12:40:11;17.60;;;12.57;;
46377;SDS011;32083;47.360;9.650;2022-11-14T12:42:47;18.90;;;12.48;;
46377;SDS011;32083;47.360;9.650;2022-11-14T12:50:53;22.73;;;13.05;;
46377;SDS011;32083;47.360;9.650;2022-11-14T13:09:37;24.85;;;11.73;;
46377;SDS011;32083;47.360;9.650;2022-11-14T13:12:28;16.13;;;10.77;;
46377;SDS011;32083;47.360;9.650;2022-11-14T13:21:22;11.38;;;9.98;;
46377;SDS011;32083;47.360;9.650;2022-11-14T13:24:13;31.92;;;10.70;;
46377;SDS011;32083;47.360;9.650;2022-11-14T13:26:42;19.33;;;8.95;;
46377;SDS011;32083;47.360;9.650;2022-11-14T13:32:06;8.98;;;6.90;;
46377;SDS011;32083;47.360;9.650;2022-11-14T13:41:08;17.45;;;7.93;;
46377;SDS011;32083;47.360;9.650;2022-11-14T13:51:37;2.33;;;1.58;;
46377;SDS011;32083;47.360;9.650;2022-11-14T13:54:11;2.03;;;1.27;;
46377;SDS011;32083;47.360;9.650;2022-11-14T14:16:02;0.80;;;0.47;;
46377;SDS011;32083;47.360;9.650;2022-11-14T14:27:02;4.25;;;0.90;;
46377;SDS011;32083;47.360;9.650;2022-11-14T14:32:23;5.38;;;2.08;;
46377;SDS011;32083;47.360;9.650;2022-11-14T14:34:49;2.42;;;1.13;;
46377;SDS011;32083;47.360;9.650;2022-11-14T14:37:18;3.10;;;1.00;;
46377;SDS011;32083;47.360;9.650;2022-11-14T14:40:00;1.17;;;0.80;;
46377;SDS011;32083;47.360;9.650;2022-11-14T14:42:37;2.75;;;0.77;;
46377;SDS011;32083;47.360;9.650;2022-11-14T14:45:12;3.05;;;1.17;;
46377;SDS011;32083;47.360;9.650;2022-11-14T14:47:41;4.72;;;1.58;;
46377;SDS011;32083;47.360;9.650;2022-11-14T14:52:45;3.38;;;1.90;;
46377;SDS011;32083;47.360;9.650;2022-11-14T14:55:22;6.25;;;2.28;;
46377;SDS011;32083;47.360;9.650;2022-11-14T14:57:48;3.95;;;1.40;;
46377;SDS011;32083;47.360;9.650;2022-11-14T15:00:22;4.40;;;1.52;;
46377;SDS011;32083;47.360;9.650;2022-11-14T15:02:56;6.68;;;1.60;;
46377;SDS011;32083;47.360;9.650;2022-11-14T15:05:26;5.22;;;1.70;;
46377;SDS011;32083;47.360;9.650;2022-11-14T15:07:55;2.80;;;1.63;;
46377;SDS011;32083;47.360;9.650;2022-11-14T15:10:24;3.50;;;1.25;;
46377;SDS011;32083;47.360;9.650;2022-11-14T15:12:58;3.20;;;1.75;;
46377;SDS011;32083;47.360;9.650;2022-11-14T15:15:24;3.65;;;1.58;;
46377;SDS011;32083;47.360;9.650;2022-11-14T15:17:52;2.58;;;1.25;;
46377;SDS011;32083;47.360;9.650;2022-11-14T15:20:20;2.92;;;1.70;;
46377;SDS011;32083;47.360;9.650;2022-11-14T15:25:35;6.75;;;2.28;;
46377;SDS011;32083;47.360;9.650;2022-11-14T15:28:01;11.25;;;2.25;;
46377;SDS011;32083;47.360;9.650;2022-11-14T15:30:29;5.40;;;1.63;;
46377;SDS011;32083;47.360;9.650;2022-11-14T15:32:59;3.08;;;2.35;;
46377;SDS011;32083;47.360;9.650;2022-11-14T15:35:28;7.60;;;1.90;;
46377;SDS011;32083;47.360;9.650;2022-11-14T15:40:38;7.38;;;3.67;;
46377;SDS011;32083;47.360;9.650;2022-11-14T15:48:50;6.53;;;3.07;;
46377;SDS011;32083;47.360;9.650;2022-11-14T15:51:16;5.32;;;3.30;;
46377;SDS011;32083;47.360;9.650;2022-11-14T15:53:46;11.32;;;3.00;;
46377;SDS011;32083;47.360;9.650;2022-11-14T15:56:13;3.20;;;2.38;;
46377;SDS011;32083;47.360;9.650;2022-11-14T15:58:39;5.28;;;2.10;;
46377;SDS011;32083;47.360;9.650;2022-11-14T16:01:07;2.47;;;1.55;;
46377;SDS011;32083;47.360;9.650;2022-11-14T16:03:44;10.38;;;3.25;;
46377;SDS011;32083;47.360;9.650;2022-11-14T16:06:15;7.45;;;2.03;;
46377;SDS011;32083;47.360;9.650;2022-11-14T16:08:42;8.10;;;3.45;;
46377;SDS011;32083;47.360;9.650;2022-11-14T16:11:08;7.47;;;2.72;;
46377;SDS011;32083;47.360;9.650;2022-11-14T16:13:33;8.13;;;2.65;;
46377;SDS011;32083;47.360;9.650;2022-11-14T16:15:59;14.38;;;3.95;;
46377;SDS011;32083;47.360;9.650;2022-11-14T16:18:25;10.77;;;3.90;;
46377;SDS011;32083;47.360;9.650;2022-11-14T16:20:51;11.02;;;3.97;;
46377;SDS011;32083;47.360;9.650;2022-11-14T16:23:22;7.88;;;4.78;;
46377;SDS011;32083;47.360;9.650;2022-11-14T16:25:48;8.05;;;4.95;;
46377;SDS011;32083;47.360;9.650;2022-11-14T16:28:14;6.47;;;4.85;;
46377;SDS011;32083;47.360;9.650;2022-11-14T16:30:40;5.78;;;4.90;;
46377;SDS011;32083;47.360;9.650;2022-11-14T16:33:06;7.63;;;5.53;;
46377;SDS011;32083;47.360;9.650;2022-11-14T16:35:33;8.15;;;4.93;;
46377;SDS011;32083;47.360;9.650;2022-11-14T16:37:59;5.32;;;3.65;;
46377;SDS011;32083;47.360;9.650;2022-11-14T16:40:26;7.88;;;5.40;;
46377;SDS011;32083;47.360;9.650;2022-11-14T16:42:52;6.53;;;4.60;;
46377;SDS011;32083;47.360;9.650;2022-11-14T16:45:20;6.65;;;5.07;;
46377;SDS011;32083;47.360;9.650;2022-11-14T16:47:46;6.80;;;5.20;;
46377;SDS011;32083;47.360;9.650;2022-11-14T16:50:13;7.13;;;4.85;;
46377;SDS011;32083;47.360;9.650;2022-11-14T16:52:39;5.78;;;4.53;;
46377;SDS011;32083;47.360;9.650;2022-11-14T16:55:05;9.23;;;5.88;;
46377;SDS011;32083;47.360;9.650;2022-11-14T16:57:33;9.23;;;6.60;;
46377;SDS011;32083;47.360;9.650;2022-11-14T17:00:03;12.73;;;7.65;;
46377;SDS011;32083;47.360;9.650;2022-11-14T17:02:30;10.43;;;7.57;;
46377;SDS011;32083;47.360;9.650;2022-11-14T17:04:56;8.18;;;5.95;;
46377;SDS011;32083;47.360;9.650;2022-11-14T17:07:22;9.00;;;6.05;;
46377;SDS011;32083;47.360;9.650;2022-11-14T17:09:48;12.18;;;6.68;;
46377;SDS011;32083;47.360;9.650;2022-11-14T17:12:14;11.90;;;6.53;;
46377;SDS011;32083;47.360;9.650;2022-11-14T17:14:40;10.38;;;6.32;;
46377;SDS011;32083;47.360;9.650;2022-11-14T17:17:06;7.82;;;6.50;;
46377;SDS011;32083;47.360;9.650;2022-11-14T17:19:32;10.90;;;6.80;;
46377;SDS011;32083;47.360;9.650;2022-11-14T17:21:58;9.45;;;5.90;;
46377;SDS011;32083;47.360;9.650;2022-11-14T17:24:24;9.35;;;6.65;;
46377;SDS011;32083;47.360;9.650;2022-11-14T17:26:50;9.13;;;6.40;;
46377;SDS011;32083;47.360;9.650;2022-11-14T17:29:16;12.30;;;6.38;;
46377;SDS011;32083;47.360;9.650;2022-11-14T17:31:42;7.72;;;6.05;;
46377;SDS011;32083;47.360;9.650;2022-11-14T17:34:08;7.68;;;5.53;;
46377;SDS011;32083;47.360;9.650;2022-11-14T17:36:35;8.30;;;5.60;;
46377;SDS011;32083;47.360;9.650;2022-11-14T17:39:01;3.88;;;3.45;;
46377;SDS011;32083;47.360;9.650;2022-11-14T17:41:26;4.30;;;3.15;;
46377;SDS011;32083;47.360;9.650;2022-11-14T17:43:53;4.15;;;3.13;;
46377;SDS011;32083;47.360;9.650;2022-11-14T17:46:26;1.90;;;1.30;;
46377;SDS011;32083;47.360;9.650;2022-11-14T17:48:52;3.78;;;1.33;;
46377;SDS011;32083;47.360;9.650;2022-11-14T17:51:18;1.50;;;1.05;;
46377;SDS011;32083;47.360;9.650;2022-11-14T17:53:45;3.38;;;2.55;;
46377;SDS011;32083;47.360;9.650;2022-11-14T17:56:15;3.92;;;3.10;;
46377;SDS011;32083;47.360;9.650;2022-11-14T17:58:43;1.63;;;1.27;;
46377;SDS011;32083;47.360;9.650;2022-11-14T18:01:11;1.60;;;1.13;;
46377;SDS011;32083;47.360;9.650;2022-11-14T18:03:38;1.63;;;1.40;;
46377;SDS011;32083;47.360;9.650;2022-11-14T18:06:05;1.13;;;1.00;;
46377;SDS011;32083;47.360;9.650;2022-11-14T18:08:33;2.65;;;0.98;;
46377;SDS011;32083;47.360;9.650;2022-11-14T18:11:00;1.88;;;1.02;;
46377;SDS011;32083;47.360;9.650;2022-11-14T18:13:29;1.67;;;0.90;;
46377;SDS011;32083;47.360;9.650;2022-11-14T18:15:59;1.63;;;1.17;;
46377;SDS011;32083;47.360;9.650;2022-11-14T18:18:29;1.27;;;0.88;;
46377;SDS011;32083;47.360;9.650;2022-11-14T18:20:56;2.22;;;1.30;;
46377;SDS011;32083;47.360;9.650;2022-11-14T18:23:22;1.67;;;1.50;;
46377;SDS011;32083;47.360;9.650;2022-11-14T18:25:49;1.77;;;1.27;;
46377;SDS011;32083;47.360;9.650;2022-11-14T18:28:15;2.83;;;2.13;;
46377;SDS011;32083;47.360;9.650;2022-11-14T18:30:41;3.28;;;2.03;;
46377;SDS011;32083;47.360;9.650;2022-11-14T18:33:16;2.00;;;1.55;;
46377;SDS011;32083;47.360;9.650;2022-11-14T18:35:42;2.05;;;1.25;;
46377;SDS011;32083;47.360;9.650;2022-11-14T18:38:08;1.50;;;1.20;;
46377;SDS011;32083;47.360;9.650;2022-11-14T18:40:35;2.13;;;1.45;;
46377;SDS011;32083;47.360;9.650;2022-11-14T18:43:01;5.15;;;2.13;;
46377;SDS011;32083;47.360;9.650;2022-11-14T18:45:27;3.45;;;2.17;;
46377;SDS011;32083;47.360;9.650;2022-11-14T18:47:53;3.65;;;1.85;;
46377;SDS011;32083;47.360;9.650;2022-11-14T18:50:19;4.22;;;2.53;;
46377;SDS011;32083;47.360;9.650;2022-11-14T18:52:45;4.40;;;2.97;;
46377;SDS011;32083;47.360;9.650;2022-11-14T18:55:11;4.03;;;2.97;;
46377;SDS011;32083;47.360;9.650;2022-11-14T18:57:37;4.70;;;3.00;;
46377;SDS011;32083;47.360;9.650;2022-11-14T19:00:03;4.72;;;2.72;;
46377;SDS011;32083;47.360;9.650;2022-11-14T19:02:30;4.45;;;2.40;;
46377;SDS011;32083;47.360;9.650;2022-11-14T19:04:56;4.32;;;2.28;;
46377;SDS011;32083;47.360;9.650;2022-11-14T19:07:22;4.43;;;2.58;;
46377;SDS011;32083;47.360;9.650;2022-11-14T19:09:49;3.67;;;2.28;;
46377;SDS011;32083;47.360;9.650;2022-11-14T19:12:15;4.13;;;2.05;;
46377;SDS011;32083;47.360;9.650;2022-11-14T19:14:46;3.42;;;2.08;;
46377;SDS011;32083;47.360;9.650;2022-11-14T19:17:14;2.00;;;1.60;;
46377;SDS011;32083;47.360;9.650;2022-11-14T19:19:45;3.25;;;2.13;;
46377;SDS011;32083;47.360;9.650;2022-11-14T19:22:12;3.50;;;2.30;;
46377;SDS011;32083;47.360;9.650;2022-11-14T19:24:38;3.25;;;2.17;;
46377;SDS011;32083;47.360;9.650;2022-11-14T19:27:07;2.63;;;1.60;;
46377;SDS011;32083;47.360;9.650;2022-11-14T19:29:34;3.25;;;1.52;;
46377;SDS011;32083;47.360;9.650;2022-11-14T19:32:00;2.70;;;1.75;;
46377;SDS011;32083;47.360;9.650;2022-11-14T19:34:26;3.45;;;2.13;;
46377;SDS011;32083;47.360;9.650;2022-11-14T19:36:52;2.22;;;1.55;;
46377;SDS011;32083;47.360;9.650;2022-11-14T19:39:19;1.58;;;1.40;;
46377;SDS011;32083;47.360;9.650;2022-11-14T19:41:45;2.67;;;1.77;;
46377;SDS011;32083;47.360;9.650;2022-11-14T19:44:12;2.58;;;2.00;;
46377;SDS011;32083;47.360;9.650;2022-11-14T19:46:38;1.55;;;1.20;;
46377;SDS011;32083;47.360;9.650;2022-11-14T19:49:04;1.98;;;1.77;;
46377;SDS011;32083;47.360;9.650;2022-11-14T19:51:31;3.35;;;1.45;;
46377;SDS011;32083;47.360;9.650;2022-11-14T19:53:57;2.15;;;1.30;;
46377;SDS011;32083;47.360;9.650;2022-11-14T19:56:26;1.80;;;1.30;;
46377;SDS011;32083;47.360;9.650;2022-11-14T19:58:53;1.88;;;1.38;;
46377;SDS011;32083;47.360;9.650;2022-11-14T20:01:21;2.97;;;2.58;;
46377;SDS011;32083;47.360;9.650;2022-11-14T20:03:52;2.15;;;1.90;;
46377;SDS011;32083;47.360;9.650;2022-11-14T20:06:23;2.92;;;1.67;;
46377;SDS011;32083;47.360;9.650;2022-11-14T20:08:55;2.88;;;1.80;;
46377;SDS011;32083;47.360;9.650;2022-11-14T20:11:27;2.97;;;1.85;;
46377;SDS011;32083;47.360;9.650;2022-11-14T20:13:55;2.63;;;1.52;;
46377;SDS011;32083;47.360;9.650;2022-11-14T20:16:24;1.33;;;1.20;;
46377;SDS011;32083;47.360;9.650;2022-11-14T20:18:54;1.67;;;1.25;;
46377;SDS011;32083;47.360;9.650;2022-11-14T20:21:23;2.28;;;1.42;;
46377;SDS011;32083;47.360;9.650;2022-11-14T20:23:49;4.28;;;1.42;;
46377;SDS011;32083;47.360;9.650;2022-11-14T20:26:16;1.60;;;1.10;;
46377;SDS011;32083;47.360;9.650;2022-11-14T20:28:43;1.48;;;1.23;;
46377;SDS011;32083;47.360;9.650;2022-11-14T20:31:11;3.00;;;1.20;;
46377;SDS011;32083;47.360;9.650;2022-11-14T20:33:42;1.95;;;1.20;;
46377;SDS011;32083;47.360;9.650;2022-11-14T20:36:15;1.88;;;1.33;;
46377;SDS011;32083;47.360;9.650;2022-11-14T20:38:44;1.58;;;1.33;;
46377;SDS011;32083;47.360;9.650;2022-11-14T20:41:11;3.05;;;1.50;;
46377;SDS011;32083;47.360;9.650;2022-11-14T20:43:38;1.55;;;1.20;;
46377;SDS011;32083;47.360;9.650;2022-11-14T20:46:05;2.13;;;1.33;;
46377;SDS011;32083;47.360;9.650;2022-11-14T20:48:36;2.53;;;1.63;;
46377;SDS011;32083;47.360;9.650;2022-11-14T20:51:03;2.78;;;1.92;;
46377;SDS011;32083;47.360;9.650;2022-11-14T20:53:31;2.15;;;1.50;;
46377;SDS011;32083;47.360;9.650;2022-11-14T20:55:57;2.45;;;1.45;;
46377;SDS011;32083;47.360;9.650;2022-11-14T20:58:24;3.25;;;1.98;;
46377;SDS011;32083;47.360;9.650;2022-11-14T21:00:51;1.85;;;1.33;;
46377;SDS011;32083;47.360;9.650;2022-11-14T21:03:18;1.83;;;1.48;;
46377;SDS011;32083;47.360;9.650;2022-11-14T21:05:45;1.83;;;1.25;;
46377;SDS011;32083;47.360;9.650;2022-11-14T21:08:11;1.73;;;1.63;;
46377;SDS011;32083;47.360;9.650;2022-11-14T21:10:39;1.67;;;1.25;;
46377;SDS011;32083;47.360;9.650;2022-11-14T21:13:13;3.22;;;2.15;;
46377;SDS011;32083;47.360;9.650;2022-11-14T21:15:59;2.50;;;1.80;;
46377;SDS011;32083;47.360;9.650;2022-11-14T21:18:27;3.13;;;1.52;;
46377;SDS011;32083;47.360;9.650;2022-11-14T21:21:03;8.48;;;1.92;;
46377;SDS011;32083;47.360;9.650;2022-11-14T21:23:33;1.83;;;1.13;;
46377;SDS011;32083;47.360;9.650;2022-11-14T21:26:04;2.85;;;1.38;;
46377;SDS011;32083;47.360;9.650;2022-11-14T21:28:33;3.53;;;1.50;;
46377;SDS011;32083;47.360;9.650;2022-11-14T21:31:00;1.60;;;1.05;;
46377;SDS011;32083;47.360;9.650;2022-11-14T21:33:36;2.67;;;1.50;;
46377;SDS011;32083;47.360;9.650;2022-11-14T21:36:05;3.28;;;1.85;;
46377;SDS011;32083;47.360;9.650;2022-11-14T21:38:32;2.55;;;1.60;;
46377;SDS011;32083;47.360;9.650;2022-11-14T21:40:58;2.75;;;1.83;;
46377;SDS011;32083;47.360;9.650;2022-11-14T21:43:24;4.88;;;2.08;;
46377;SDS011;32083;47.360;9.650;2022-11-14T21:45:57;1.73;;;1.17;;
46377;SDS011;32083;47.360;9.650;2022-11-14T21:48:36;3.85;;;2.17;;
46377;SDS011;32083;47.360;9.650;2022-11-14T21:51:05;2.03;;;1.80;;
46377;SDS011;32083;47.360;9.650;2022-11-14T21:53:42;1.27;;;1.17;;
46377;SDS011;32083;47.360;9.650;2022-11-14T21:56:10;1.30;;;1.00;;
46377;SDS011;32083;47.360;9.650;2022-11-14T21:58:38;2.20;;;1.23;;
46377;SDS011;32083;47.360;9.650;2022-11-14T22:01:08;1.60;;;1.30;;
46377;SDS011;32083;47.360;9.650;2022-11-14T22:04:11;1.63;;;1.10;;
46377;SDS011;32083;47.360;9.650;2022-11-14T22:06:38;1.30;;;1.20;;
46377;SDS011;32083;47.360;9.650;2022-11-14T22:09:05;2.75;;;1.27;;
46377;SDS011;32083;47.360;9.650;2022-11-14T22:11:32;1.73;;;1.38;;
46377;SDS011;32083;47.360;9.650;2022-11-14T22:13:59;2.17;;;1.55;;
46377;SDS011;32083;47.360;9.650;2022-11-14T22:16:25;2.00;;;1.40;;
46377;SDS011;32083;47.360;9.650;2022-11-14T22:18:51;1.85;;;1.30;;
46377;SDS011;32083;47.360;9.650;2022-11-14T22:21:18;2.30;;;1.25;;
46377;SDS011;32083;47.360;9.650;2022-11-14T22:23:44;2.88;;;1.30;;
46377;SDS011;32083;47.360;9.650;2022-11-14T22:26:10;1.80;;;1.38;;
46377;SDS011;32083;47.360;9.650;2022-11-14T22:28:37;3.63;;;1.30;;